Time,TemperatureF,DewpointF,PressureIn,WindDirection,WindDirectionDegrees,WindSpeedMPH,WindSpeedGustMPH,Humidity,HourlyPrecipIn,Conditions,Clouds,dailyrainin,SoftwareType,DateUTC
2013-03-17 00:02:00,15.6,8.5,30.23,North,360,8.0,11.0,73,0.00,,,0.01,Wunderground v.1.15,2013-03-17 05:02:00,
2013-03-17 00:08:00,15.6,8.5,30.23,North,360,6.0,11.0,73,0.00,,,0.01,Wunderground v.1.15,2013-03-17 05:08:00,
2013-03-17 00:13:00,15.4,8.3,30.23,NNW,340,7.0,9.0,73,0.00,,,0.01,Wunderground v.1.15,2013-03-17 05:13:00,
2013-03-17 00:18:00,15.4,8.3,30.23,North,351,5.0,9.0,73,0.00,,,0.00,Wunderground v.1.15,2013-03-17 05:18:00,
2013-03-17 00:24:00,15.2,8.4,30.23,North,9,5.0,7.0,74,0.00,,,0.00,Wunderground v.1.15,2013-03-17 05:24:00,
2013-03-17 00:30:00,15.2,8.1,30.23,NNE,22,9.0,9.0,73,0.00,,,0.00,Wunderground v.1.15,2013-03-17 05:30:00,
2013-03-17 00:35:00,15.2,7.8,30.23,NNE,13,7.0,9.0,72,0.00,,,0.00,Wunderground v.1.15,2013-03-17 05:35:00,
2013-03-17 00:40:00,15.2,7.8,30.23,North,9,5.0,6.0,72,0.00,,,0.00,Wunderground v.1.15,2013-03-17 05:40:00,
2013-03-17 00:45:00,15.2,7.8,30.23,North,11,10.0,10.0,72,0.00,,,0.00,Wunderground v.1.15,2013-03-17 05:45:00,
2013-03-17 00:50:00,15.2,7.8,30.23,North,360,7.0,7.0,72,0.00,,,0.00,Wunderground v.1.15,2013-03-17 05:50:00,
2013-03-17 00:57:00,15.1,7.7,30.23,NNW,338,7.0,9.0,72,0.00,,,0.00,Wunderground v.1.15,2013-03-17 05:57:00,
2013-03-17 01:02:00,14.9,7.8,30.23,North,360,9.0,9.0,73,0.00,,,0.00,Wunderground v.1.15,2013-03-17 06:02:00,
2013-03-17 01:07:00,14.9,7.8,30.23,North,360,5.0,9.0,73,0.00,,,0.00,Wunderground v.1.15,2013-03-17 06:07:00,
2013-03-17 01:12:00,14.8,7.7,30.23,NNW,342,5.0,6.0,73,0.00,,,0.00,Wunderground v.1.15,2013-03-17 06:12:00,
2013-03-17 01:17:00,14.8,7.4,30.23,NE,40,12.0,12.0,72,0.00,,,0.00,Wunderground v.1.15,2013-03-17 06:17:00,
2013-03-17 01:22:00,14.6,7.2,30.23,NNE,28,6.0,9.0,72,0.00,,,0.00,Wunderground v.1.15,2013-03-17 06:22:00,
2013-03-17 01:27:00,14.6,7.2,30.23,NNE,31,6.0,9.0,72,0.00,,,0.00,Wunderground v.1.15,2013-03-17 06:27:00,
2013-03-17 01:33:00,14.6,7.2,30.21,North,360,6.0,6.0,72,0.00,,,0.00,Wunderground v.1.15,2013-03-17 06:33:00,
2013-03-17 01:38:00,14.6,7.8,30.21,NNE,23,6.0,9.0,74,0.00,,,0.00,Wunderground v.1.15,2013-03-17 06:38:00,
2013-03-17 01:44:00,14.6,7.8,30.21,North,11,4.0,7.0,74,0.00,,,0.00,Wunderground v.1.15,2013-03-17 06:44:00,
2013-03-17 01:50:00,14.4,7.6,30.21,NNE,21,5.0,6.0,74,0.00,,,0.00,Wunderground v.1.15,2013-03-17 06:50:00,
2013-03-17 01:55:00,14.4,7.6,30.21,NNE,15,7.0,10.0,74,0.00,,,0.00,Wunderground v.1.15,2013-03-17 06:55:00,
2013-03-17 02:00:00,14.4,7.9,30.21,NNE,15,8.0,8.0,75,0.00,,,0.00,Wunderground v.1.15,2013-03-17 07:00:00,
2013-03-17 02:05:00,14.3,7.8,30.21,NE,44,5.0,13.0,75,0.00,,,0.00,Wunderground v.1.15,2013-03-17 07:05:00,
2013-03-17 02:10:00,14.1,7.6,30.21,NNE,26,7.0,9.0,75,0.00,,,0.00,Wunderground v.1.15,2013-03-17 07:10:00,
2013-03-17 02:15:00,14.1,7.6,30.21,NNE,19,9.0,10.0,75,0.00,,,0.00,Wunderground v.1.15,2013-03-17 07:15:00,
2013-03-17 02:20:00,14.1,7.6,30.21,NNE,15,10.0,10.0,75,0.00,,,0.00,Wunderground v.1.15,2013-03-17 07:20:00,
2013-03-17 02:25:00,14.1,7.6,30.21,NNE,26,4.0,11.0,75,0.00,,,0.00,Wunderground v.1.15,2013-03-17 07:25:00,
2013-03-17 02:30:00,14.0,7.5,30.20,NNE,32,7.0,10.0,75,0.00,,,0.00,Wunderground v.1.15,2013-03-17 07:30:00,
2013-03-17 02:35:00,14.0,7.8,30.20,NNE,24,3.0,12.0,76,0.00,,,0.00,Wunderground v.1.15,2013-03-17 07:35:00,
2013-03-17 02:40:00,14.0,7.8,30.20,NNE,22,12.0,12.0,76,0.00,,,0.00,Wunderground v.1.15,2013-03-17 07:40:00,
2013-03-17 02:45:00,13.8,7.6,30.20,NNE,15,7.0,12.0,76,0.00,,,0.00,Wunderground v.1.15,2013-03-17 07:45:00,
2013-03-17 02:50:00,13.6,7.4,30.20,NNE,26,10.0,13.0,76,0.00,,,0.00,Wunderground v.1.15,2013-03-17 07:50:00,
2013-03-17 02:55:00,13.5,7.0,30.20,NNE,23,10.0,13.0,75,0.00,,,0.00,Wunderground v.1.15,2013-03-17 07:55:00,
2013-03-17 03:01:00,13.3,6.9,30.19,NE,45,10.0,12.0,75,0.00,,,0.00,Wunderground v.1.15,2013-03-17 08:01:00,
2013-03-17 03:06:00,13.3,6.9,30.19,NNE,20,10.0,13.0,75,0.00,,,0.00,Wunderground v.1.15,2013-03-17 08:06:00,
2013-03-17 03:11:00,13.1,6.7,30.19,NNE,16,10.0,15.0,75,0.00,,,0.00,Wunderground v.1.15,2013-03-17 08:11:00,
2013-03-17 03:16:00,13.1,6.7,30.18,NE,38,8.0,15.0,75,0.00,,,0.00,Wunderground v.1.15,2013-03-17 08:16:00,
2013-03-17 03:21:00,12.9,6.2,30.18,NE,44,3.0,10.0,74,0.00,,,0.00,Wunderground v.1.15,2013-03-17 08:21:00,
2013-03-17 03:27:00,12.9,6.5,30.18,NE,50,3.0,12.0,75,0.00,,,0.00,Wunderground v.1.15,2013-03-17 08:27:00,
2013-03-17 03:32:00,12.8,6.7,30.18,North,351,6.0,12.0,76,0.00,,,0.00,Wunderground v.1.15,2013-03-17 08:32:00,
2013-03-17 03:37:00,12.8,6.7,30.18,NNE,16,9.0,12.0,76,0.00,,,0.00,Wunderground v.1.15,2013-03-17 08:37:00,
2013-03-17 03:42:00,12.6,6.8,30.18,North,10,9.0,13.0,77,0.00,,,0.00,Wunderground v.1.15,2013-03-17 08:42:00,
2013-03-17 03:47:00,12.6,6.8,30.18,NE,54,7.0,13.0,77,0.00,,,0.00,Wunderground v.1.15,2013-03-17 08:47:00,
2013-03-17 03:52:00,12.4,6.6,30.18,North,360,7.0,9.0,77,0.00,,,0.00,Wunderground v.1.15,2013-03-17 08:52:00,
2013-03-17 03:57:00,12.3,6.5,30.18,East,81,7.0,10.0,77,0.00,,,0.00,Wunderground v.1.15,2013-03-17 08:57:00,
2013-03-17 04:02:00,12.1,6.3,30.17,NNE,23,8.0,13.0,77,0.00,,,0.00,Wunderground v.1.15,2013-03-17 09:02:00,
2013-03-17 04:07:00,12.1,6.3,30.17,NE,53,5.0,13.0,77,0.00,,,0.00,Wunderground v.1.15,2013-03-17 09:07:00,
2013-03-17 04:12:00,11.9,6.1,30.17,ENE,60,6.0,8.0,77,0.00,,,0.00,Wunderground v.1.15,2013-03-17 09:12:00,
2013-03-17 04:17:00,11.7,5.9,30.17,ENE,76,7.0,10.0,77,0.00,,,0.00,Wunderground v.1.15,2013-03-17 09:17:00,
2013-03-17 04:22:00,11.6,5.8,30.17,ENE,59,6.0,11.0,77,0.00,,,0.00,Wunderground v.1.15,2013-03-17 09:22:00,
2013-03-17 04:27:00,11.6,5.5,30.17,NE,49,3.0,11.0,76,0.00,,,0.00,Wunderground v.1.15,2013-03-17 09:27:00,
2013-03-17 04:32:00,11.6,5.5,30.17,NE,55,5.0,7.0,76,0.00,,,0.00,Wunderground v.1.15,2013-03-17 09:32:00,
2013-03-17 04:37:00,11.6,5.5,30.17,NE,53,4.0,11.0,76,0.00,,,0.00,Wunderground v.1.15,2013-03-17 09:37:00,
2013-03-17 04:42:00,11.4,5.3,30.17,NE,40,9.0,11.0,76,0.00,,,0.00,Wunderground v.1.15,2013-03-17 09:42:00,
2013-03-17 04:47:00,11.2,5.1,30.16,ENE,63,8.0,11.0,76,0.00,,,0.00,Wunderground v.1.15,2013-03-17 09:47:00,
2013-03-17 04:52:00,11.2,4.8,30.16,NE,51,5.0,9.0,75,0.00,,,0.00,Wunderground v.1.15,2013-03-17 09:52:00,
2013-03-17 04:57:00,11.4,5.0,30.16,NE,53,4.0,10.0,75,0.00,,,0.00,Wunderground v.1.15,2013-03-17 09:57:00,
2013-03-17 05:02:00,11.4,4.7,30.15,NNE,32,5.0,9.0,74,0.00,,,0.00,Wunderground v.1.15,2013-03-17 10:02:00,
2013-03-17 05:07:00,11.4,4.7,30.15,NE,54,3.0,13.0,74,0.00,,,0.00,Wunderground v.1.15,2013-03-17 10:07:00,
2013-03-17 05:12:00,11.4,4.7,30.15,NE,36,3.0,12.0,74,0.00,,,0.00,Wunderground v.1.15,2013-03-17 10:12:00,
2013-03-17 05:17:00,11.4,4.7,30.15,NE,38,8.0,13.0,74,0.00,,,0.00,Wunderground v.1.15,2013-03-17 10:17:00,
2013-03-17 05:22:00,11.4,4.7,30.15,ENE,76,4.0,10.0,74,0.00,,,0.00,Wunderground v.1.15,2013-03-17 10:22:00,
2013-03-17 05:27:00,11.4,4.7,30.15,ENE,65,11.0,12.0,74,0.00,,,0.00,Wunderground v.1.15,2013-03-17 10:27:00,
2013-03-17 05:32:00,11.2,4.5,30.16,NE,46,9.0,10.0,74,0.00,,,0.00,Wunderground v.1.15,2013-03-17 10:32:00,
2013-03-17 05:37:00,11.2,4.5,30.16,NE,54,6.0,14.0,74,0.00,,,0.00,Wunderground v.1.15,2013-03-17 10:37:00,
2013-03-17 05:42:00,11.2,4.8,30.16,ENE,76,5.0,9.0,75,0.00,,,0.00,Wunderground v.1.15,2013-03-17 10:42:00,
2013-03-17 05:47:00,11.2,4.8,30.16,NNE,28,7.0,13.0,75,0.00,,,0.00,Wunderground v.1.15,2013-03-17 10:47:00,
2013-03-17 05:52:00,11.1,4.7,30.16,NE,38,3.0,10.0,75,0.00,,,0.00,Wunderground v.1.15,2013-03-17 10:52:00,
2013-03-17 05:58:00,11.1,4.7,30.16,NE,54,4.0,11.0,75,0.00,,,0.00,Wunderground v.1.15,2013-03-17 10:58:00,
2013-03-17 06:03:00,10.9,4.5,30.16,NNW,342,6.0,12.0,75,0.00,,,0.00,Wunderground v.1.15,2013-03-17 11:03:00,
2013-03-17 06:08:00,11.1,5.0,30.16,ENE,74,5.0,12.0,76,0.00,,,0.00,Wunderground v.1.15,2013-03-17 11:08:00,
2013-03-17 06:13:00,11.1,5.0,30.15,ENE,61,5.0,10.0,76,0.00,,,0.00,Wunderground v.1.15,2013-03-17 11:13:00,
2013-03-17 06:18:00,11.1,5.0,30.15,NE,55,7.0,10.0,76,0.00,,,0.00,Wunderground v.1.15,2013-03-17 11:18:00,
2013-03-17 06:23:00,11.1,5.0,30.15,East,82,4.0,7.0,76,0.00,,,0.00,Wunderground v.1.15,2013-03-17 11:23:00,
2013-03-17 06:28:00,11.1,5.0,30.15,East,95,9.0,9.0,76,0.00,,,0.00,Wunderground v.1.15,2013-03-17 11:28:00,
2013-03-17 06:33:00,11.1,5.0,30.15,East,89,5.0,9.0,76,0.00,,,0.00,Wunderground v.1.15,2013-03-17 11:33:00,
2013-03-17 06:38:00,11.1,5.0,30.15,NE,34,3.0,10.0,76,0.00,,,0.00,Wunderground v.1.15,2013-03-17 11:38:00,
2013-03-17 06:43:00,10.9,4.8,30.15,NE,49,6.0,12.0,76,0.00,,,0.00,Wunderground v.1.15,2013-03-17 11:43:00,
2013-03-17 06:48:00,10.9,5.1,30.15,ENE,69,5.0,12.0,77,0.00,,,0.00,Wunderground v.1.15,2013-03-17 11:48:00,
2013-03-17 06:53:00,11.1,5.3,30.15,NE,53,8.0,11.0,77,0.00,,,0.00,Wunderground v.1.15,2013-03-17 11:53:00,
2013-03-17 06:58:00,10.9,5.1,30.14,ENE,68,6.0,12.0,77,0.00,,,0.00,Wunderground v.1.15,2013-03-17 11:58:00,
2013-03-17 07:03:00,10.9,5.1,30.14,East,93,5.0,7.0,77,0.00,,,0.00,Wunderground v.1.15,2013-03-17 12:03:00,
2013-03-17 07:08:00,10.9,5.1,30.14,ENE,76,6.0,10.0,77,0.00,,,0.00,Wunderground v.1.15,2013-03-17 12:08:00,
2013-03-17 07:13:00,11.1,5.3,30.15,ENE,67,5.0,7.0,77,0.00,,,0.00,Wunderground v.1.15,2013-03-17 12:13:00,
2013-03-17 07:18:00,11.1,5.3,30.15,ENE,77,5.0,10.0,77,0.00,,,0.00,Wunderground v.1.15,2013-03-17 12:18:00,
2013-03-17 07:23:00,11.1,5.3,30.15,ENE,69,5.0,11.0,77,0.00,,,0.00,Wunderground v.1.15,2013-03-17 12:23:00,
2013-03-17 07:28:00,11.1,5.3,30.15,East,91,2.0,11.0,77,0.00,,,0.00,Wunderground v.1.15,2013-03-17 12:28:00,
2013-03-17 07:33:00,11.1,5.3,30.15,East,90,7.0,7.0,77,0.00,,,0.00,Wunderground v.1.15,2013-03-17 12:33:00,
2013-03-17 07:38:00,11.1,5.3,30.15,ESE,105,7.0,11.0,77,0.00,,,0.00,Wunderground v.1.15,2013-03-17 12:38:00,
2013-03-17 07:43:00,11.2,5.4,30.15,East,91,6.0,11.0,77,0.00,,,0.00,Wunderground v.1.15,2013-03-17 12:43:00,
2013-03-17 07:48:00,11.2,5.4,30.15,ENE,77,3.0,11.0,77,0.00,,,0.00,Wunderground v.1.15,2013-03-17 12:48:00,
2013-03-17 07:53:00,11.6,5.8,30.15,ENE,65,9.0,10.0,77,0.00,,,0.00,Wunderground v.1.15,2013-03-17 12:53:00,
2013-03-17 07:58:00,11.7,5.6,30.14,East,93,6.0,12.0,76,0.00,,,0.00,Wunderground v.1.15,2013-03-17 12:58:00,
2013-03-17 08:03:00,11.9,5.5,30.14,East,92,6.0,13.0,75,0.00,,,0.00,Wunderground v.1.15,2013-03-17 13:03:00,
2013-03-17 08:08:00,12.1,5.7,30.14,ENE,77,6.0,13.0,75,0.00,,,0.00,Wunderground v.1.15,2013-03-17 13:08:00,
2013-03-17 08:13:00,12.4,6.0,30.14,East,98,12.0,15.0,75,0.00,,,0.00,Wunderground v.1.15,2013-03-17 13:13:00,
2013-03-17 08:19:00,12.6,5.9,30.14,East,82,10.0,15.0,74,0.00,,,0.00,Wunderground v.1.15,2013-03-17 13:19:00,
2013-03-17 08:24:00,12.9,6.2,30.14,East,80,5.0,10.0,74,0.00,,,0.00,Wunderground v.1.15,2013-03-17 13:24:00,
2013-03-17 08:29:00,12.9,5.9,30.14,ESE,109,5.0,11.0,73,0.00,,,0.00,Wunderground v.1.15,2013-03-17 13:29:00,
2013-03-17 08:34:00,12.9,5.9,30.14,ESE,103,5.0,12.0,73,0.00,,,0.00,Wunderground v.1.15,2013-03-17 13:34:00,
2013-03-17 08:39:00,13.3,6.3,30.14,ESE,102,1.0,13.0,73,0.00,,,0.00,Wunderground v.1.15,2013-03-17 13:39:00,
2013-03-17 08:44:00,13.8,6.7,30.14,ENE,71,6.0,14.0,73,0.00,,,0.00,Wunderground v.1.15,2013-03-17 13:44:00,
2013-03-17 08:49:00,14.0,6.6,30.14,SSE,161,5.0,16.0,72,0.00,,,0.00,Wunderground v.1.15,2013-03-17 13:49:00,
2013-03-17 08:54:00,14.0,6.3,30.14,ENE,76,5.0,14.0,71,0.00,,,0.00,Wunderground v.1.15,2013-03-17 13:54:00,
2013-03-17 08:59:00,14.1,6.7,30.14,East,100,4.0,14.0,72,0.00,,,0.00,Wunderground v.1.15,2013-03-17 13:59:00,
2013-03-17 09:04:00,14.1,6.4,30.14,ESE,103,6.0,14.0,71,0.00,,,0.00,Wunderground v.1.15,2013-03-17 14:04:00,
2013-03-17 09:09:00,14.3,6.9,30.14,East,98,5.0,14.0,72,0.00,,,0.00,Wunderground v.1.15,2013-03-17 14:09:00,
2013-03-17 09:14:00,14.6,6.9,30.14,ESE,106,6.0,15.0,71,0.00,,,0.00,Wunderground v.1.15,2013-03-17 14:14:00,
2013-03-17 09:19:00,14.6,6.9,30.14,ESE,109,9.0,16.0,71,0.00,,,0.00,Wunderground v.1.15,2013-03-17 14:19:00,
2013-03-17 09:24:00,14.8,7.1,30.14,East,93,7.0,13.0,71,0.00,,,0.00,Wunderground v.1.15,2013-03-17 14:24:00,
2013-03-17 09:29:00,14.9,7.2,30.14,East,95,10.0,13.0,71,0.00,,,0.00,Wunderground v.1.15,2013-03-17 14:29:00,
2013-03-17 09:34:00,15.4,7.7,30.14,ESE,103,1.0,12.0,71,0.00,,,0.00,Wunderground v.1.15,2013-03-17 14:34:00,
2013-03-17 09:39:00,15.6,7.9,30.14,ESE,105,3.0,14.0,71,0.00,,,0.00,Wunderground v.1.15,2013-03-17 14:39:00,
2013-03-17 09:44:00,15.6,7.6,30.13,ESE,115,8.0,15.0,70,0.00,,,0.00,Wunderground v.1.15,2013-03-17 14:44:00,
2013-03-17 09:49:00,16.1,7.7,30.13,SSE,153,9.0,17.0,69,0.00,,,0.00,Wunderground v.1.15,2013-03-17 14:49:00,
2013-03-17 09:54:00,16.5,8.1,30.13,East,84,1.0,14.0,69,0.00,,,0.00,Wunderground v.1.15,2013-03-17 14:54:00,
2013-03-17 09:59:00,16.9,8.2,30.12,SE,146,6.0,16.0,68,0.00,,,0.00,Wunderground v.1.15,2013-03-17 14:59:00,
2013-03-17 10:04:00,17.0,7.9,30.12,East,86,6.0,16.0,67,0.00,,,0.00,Wunderground v.1.15,2013-03-17 15:04:00,
2013-03-17 10:09:00,17.2,8.1,30.12,SSE,155,6.0,16.0,67,0.00,,,0.00,Wunderground v.1.15,2013-03-17 15:09:00,
2013-03-17 10:14:00,17.3,8.2,30.12,East,98,6.0,15.0,67,0.00,,,0.00,Wunderground v.1.15,2013-03-17 15:14:00,
2013-03-17 10:19:00,17.5,8.4,30.12,SE,146,12.0,15.0,67,0.00,,,0.00,Wunderground v.1.15,2013-03-17 15:19:00,
2013-03-17 10:24:00,17.7,8.6,30.12,SE,128,10.0,13.0,67,0.00,,,0.00,Wunderground v.1.15,2013-03-17 15:24:00,
2013-03-17 10:30:00,17.7,8.6,30.12,SSE,153,5.0,6.0,67,0.00,,,0.00,Wunderground v.1.15,2013-03-17 15:30:00,
2013-03-17 10:35:00,18.0,8.9,30.12,East,86,3.0,10.0,67,0.00,,,0.00,Wunderground v.1.15,2013-03-17 15:35:00,
2013-03-17 10:40:00,18.3,9.5,30.12,ESE,103,11.0,11.0,68,0.00,,,0.00,Wunderground v.1.15,2013-03-17 15:40:00,
2013-03-17 10:45:00,18.4,9.3,30.11,ESE,123,10.0,15.0,67,0.00,,,0.00,Wunderground v.1.15,2013-03-17 15:45:00,
2013-03-17 10:50:00,18.8,9.6,30.11,SSE,150,4.0,7.0,67,0.00,,,0.00,Wunderground v.1.15,2013-03-17 15:50:00,
2013-03-17 10:55:00,19.2,10.0,30.11,South,189,6.0,10.0,67,0.00,,,0.00,Wunderground v.1.15,2013-03-17 15:55:00,
2013-03-17 11:00:00,19.4,10.2,30.11,East,96,4.0,5.0,67,0.00,,,0.00,Wunderground v.1.15,2013-03-17 16:00:00,
2013-03-17 11:05:00,19.4,10.2,30.11,ESE,119,4.0,12.0,67,0.00,,,0.00,Wunderground v.1.15,2013-03-17 16:05:00,
2013-03-17 11:10:00,19.5,10.3,30.11,SSE,155,3.0,5.0,67,0.00,,,0.00,Wunderground v.1.15,2013-03-17 16:10:00,
2013-03-17 11:15:00,19.7,10.5,30.10,SSE,147,2.0,14.0,67,0.00,,,0.00,Wunderground v.1.15,2013-03-17 16:15:00,
2013-03-17 11:20:00,19.9,10.7,30.10,ESE,107,2.0,6.0,67,0.00,,,0.00,Wunderground v.1.15,2013-03-17 16:20:00,
2013-03-17 11:25:00,20.0,10.5,30.10,SSE,150,4.0,15.0,66,0.00,,,0.00,Wunderground v.1.15,2013-03-17 16:25:00,
2013-03-17 11:30:00,20.2,10.6,30.09,ESE,117,9.0,10.0,66,0.00,,,0.00,Wunderground v.1.15,2013-03-17 16:30:00,
2013-03-17 11:35:00,20.6,11.0,30.09,SSW,192,9.0,12.0,66,0.00,,,0.00,Wunderground v.1.15,2013-03-17 16:35:00,
2013-03-17 11:40:00,21.0,11.1,30.09,SE,140,3.0,6.0,65,0.00,,,0.00,Wunderground v.1.15,2013-03-17 16:40:00,
2013-03-17 11:45:00,20.8,10.9,30.07,ESE,110,4.0,15.0,65,0.00,,,0.00,Wunderground v.1.15,2013-03-17 16:45:00,
2013-03-17 11:50:00,21.3,11.7,30.07,South,183,10.0,10.0,66,0.00,,,0.00,Wunderground v.1.15,2013-03-17 16:50:00,
2013-03-17 11:55:00,21.4,11.5,30.07,SE,142,2.0,14.0,65,0.00,,,0.00,Wunderground v.1.15,2013-03-17 16:55:00,
2013-03-17 12:00:00,21.8,11.8,30.06,East,100,4.0,6.0,65,0.00,,,0.00,Wunderground v.1.15,2013-03-17 17:00:00,
2013-03-17 12:05:00,21.8,11.8,30.06,SSE,168,5.0,13.0,65,0.00,,,0.00,Wunderground v.1.15,2013-03-17 17:05:00,
2013-03-17 12:10:00,21.9,11.9,30.06,SE,137,2.0,7.0,65,0.00,,,0.00,Wunderground v.1.15,2013-03-17 17:10:00,
2013-03-17 12:15:00,22.4,12.4,30.06,ESE,113,6.0,11.0,65,0.00,,,0.00,Wunderground v.1.15,2013-03-17 17:15:00,
2013-03-17 12:20:00,22.7,12.3,30.06,SE,128,6.0,13.0,64,0.00,,,0.00,Wunderground v.1.15,2013-03-17 17:20:00,
2013-03-17 12:25:00,22.5,12.5,30.06,South,175,10.0,15.0,65,0.00,,,0.00,Wunderground v.1.15,2013-03-17 17:25:00,
2013-03-17 12:30:00,22.7,13.0,30.05,East,98,4.0,7.0,66,0.00,,,0.00,Wunderground v.1.15,2013-03-17 17:30:00,
2013-03-17 12:35:00,23.0,13.3,30.05,SE,138,2.0,11.0,66,0.00,,,0.00,Wunderground v.1.15,2013-03-17 17:35:00,
2013-03-17 12:40:00,23.5,13.1,30.05,SSE,161,9.0,10.0,64,0.00,,,0.00,Wunderground v.1.15,2013-03-17 17:40:00,
2013-03-17 12:45:00,23.6,13.5,30.04,SSE,164,11.0,14.0,65,0.00,,,0.00,Wunderground v.1.15,2013-03-17 17:45:00,
2013-03-17 12:50:00,23.6,13.5,30.04,South,172,6.0,10.0,65,0.00,,,0.00,Wunderground v.1.15,2013-03-17 17:50:00,
2013-03-17 12:55:00,24.2,14.1,30.04,ESE,109,4.0,13.0,65,0.00,,,0.00,Wunderground v.1.15,2013-03-17 17:55:00,
2013-03-17 13:01:00,24.7,14.6,30.01,ENE,69,9.0,9.0,65,0.00,,,0.00,Wunderground v.1.15,2013-03-17 18:01:00,
2013-03-17 13:06:00,24.8,14.3,30.01,SSE,167,6.0,15.0,64,0.00,,,0.00,Wunderground v.1.15,2013-03-17 18:06:00,
2013-03-17 13:11:00,25.0,14.5,30.01,SSE,165,2.0,15.0,64,0.00,,,0.00,Wunderground v.1.15,2013-03-17 18:11:00,
2013-03-17 13:16:00,25.3,14.8,30.00,South,178,6.0,15.0,64,0.00,,,0.00,Wunderground v.1.15,2013-03-17 18:16:00,
2013-03-17 13:21:00,25.3,14.8,30.00,SSE,165,6.0,9.0,64,0.00,,,0.00,Wunderground v.1.15,2013-03-17 18:21:00,
2013-03-17 13:26:00,25.3,14.8,30.00,ESE,123,10.0,13.0,64,0.00,,,0.00,Wunderground v.1.15,2013-03-17 18:26:00,
2013-03-17 13:31:00,25.7,15.6,29.99,SE,132,12.0,12.0,65,0.00,,,0.00,Wunderground v.1.15,2013-03-17 18:31:00,
2013-03-17 13:36:00,25.8,15.3,29.99,East,82,7.0,17.0,64,0.00,,,0.00,Wunderground v.1.15,2013-03-17 18:36:00,
2013-03-17 13:41:00,26.4,16.2,29.99,ESE,115,6.0,7.0,65,0.00,,,0.00,Wunderground v.1.15,2013-03-17 18:41:00,
2013-03-17 13:46:00,26.9,16.7,29.98,SSE,157,13.0,16.0,65,0.00,,,0.00,Wunderground v.1.15,2013-03-17 18:46:00,
2013-03-17 13:51:00,27.0,15.7,29.98,South,177,7.0,13.0,62,0.00,,,0.00,Wunderground v.1.15,2013-03-17 18:51:00,
2013-03-17 13:56:00,27.0,17.5,29.98,ESE,103,10.0,14.0,67,0.00,,,0.00,Wunderground v.1.15,2013-03-17 18:56:00,
2013-03-17 14:01:00,27.5,16.5,29.96,East,84,6.0,13.0,63,0.00,,,0.00,Wunderground v.1.15,2013-03-17 19:01:00,
2013-03-17 14:06:00,27.5,16.5,29.96,South,186,11.0,14.0,63,0.00,,,0.00,Wunderground v.1.15,2013-03-17 19:06:00,
2013-03-17 14:11:00,27.5,16.5,29.96,SE,141,5.0,16.0,63,0.00,,,0.00,Wunderground v.1.15,2013-03-17 19:11:00,
2013-03-17 14:16:00,27.6,16.6,29.96,ESE,123,4.0,16.0,63,0.00,,,0.00,Wunderground v.1.15,2013-03-17 19:16:00,
2013-03-17 14:21:00,27.5,17.3,29.96,South,171,12.0,16.0,65,0.00,,,0.00,Wunderground v.1.15,2013-03-17 19:21:00,
2013-03-17 14:27:00,27.5,17.3,29.96,SE,125,7.0,19.0,65,0.00,,,0.00,Wunderground v.1.15,2013-03-17 19:27:00,
2013-03-17 14:32:00,27.3,17.1,29.96,SSE,158,12.0,18.0,65,0.00,,,0.00,Wunderground v.1.15,2013-03-17 19:32:00,
2013-03-17 14:37:00,27.2,17.7,29.96,SSE,162,11.0,18.0,67,0.00,,,0.00,Wunderground v.1.15,2013-03-17 19:37:00,
2013-03-17 14:42:00,27.9,18.4,29.96,South,171,15.0,17.0,67,0.00,,,0.00,Wunderground v.1.15,2013-03-17 19:42:00,
2013-03-17 14:47:00,27.8,18.3,29.96,SSE,155,4.0,17.0,67,0.00,,,0.00,Wunderground v.1.15,2013-03-17 19:47:00,
2013-03-17 14:52:00,28.1,18.5,29.96,ESE,103,10.0,17.0,67,0.00,,,0.00,Wunderground v.1.15,2013-03-17 19:52:00,
2013-03-17 14:57:00,27.8,18.6,29.96,East,84,5.0,21.0,68,0.00,,,0.00,Wunderground v.1.15,2013-03-17 19:57:00,
2013-03-17 15:02:00,28.2,19.3,29.94,South,180,11.0,16.0,69,0.00,,,0.00,Wunderground v.1.15,2013-03-17 20:02:00,
2013-03-17 15:08:00,28.7,19.8,29.94,SSE,165,9.0,16.0,69,0.00,,,0.00,Wunderground v.1.15,2013-03-17 20:08:00,
2013-03-17 15:13:00,29.0,19.8,29.94,SSE,147,12.0,14.0,68,0.00,,,0.00,Wunderground v.1.15,2013-03-17 20:13:00,
2013-03-17 15:18:00,29.5,20.6,29.94,ESE,117,6.0,20.0,69,0.00,,,0.00,Wunderground v.1.15,2013-03-17 20:18:00,
2013-03-17 15:23:00,29.0,19.4,29.94,South,176,9.0,18.0,67,0.00,,,0.00,Wunderground v.1.15,2013-03-17 20:23:00,
2013-03-17 15:28:00,28.5,19.6,29.92,SSE,165,11.0,18.0,69,0.00,,,0.00,Wunderground v.1.15,2013-03-17 20:28:00,
2013-03-17 15:33:00,28.7,20.1,29.92,SSE,160,1.0,16.0,70,0.00,,,0.00,Wunderground v.1.15,2013-03-17 20:33:00,
2013-03-17 15:38:00,29.0,20.4,29.92,ESE,113,9.0,16.0,70,0.00,,,0.00,Wunderground v.1.15,2013-03-17 20:38:00,
2013-03-17 15:43:00,28.5,20.0,29.91,SE,138,4.0,13.0,70,0.00,,,0.00,Wunderground v.1.15,2013-03-17 20:43:00,
2013-03-17 15:48:00,28.8,20.6,29.91,SSE,149,11.0,20.0,71,0.00,,,0.00,Wunderground v.1.15,2013-03-17 20:48:00,
2013-03-17 15:53:00,29.1,20.5,29.91,SSE,161,5.0,13.0,70,0.00,,,0.00,Wunderground v.1.15,2013-03-17 20:53:00,
2013-03-17 15:58:00,29.0,20.4,29.91,SSE,153,10.0,19.0,70,0.00,,,0.00,Wunderground v.1.15,2013-03-17 20:58:00,
2013-03-17 16:03:00,29.0,20.8,29.91,SE,133,11.0,13.0,71,0.00,,,0.00,Wunderground v.1.15,2013-03-17 21:03:00,
2013-03-17 16:08:00,29.0,20.8,29.91,NNE,14,2.0,16.0,71,0.00,,,0.00,Wunderground v.1.15,2013-03-17 21:08:00,
2013-03-17 16:13:00,29.1,21.2,29.90,SSE,148,15.0,15.0,72,0.00,,,0.00,Wunderground v.1.15,2013-03-17 21:13:00,
2013-03-17 16:18:00,29.4,21.2,29.90,SSE,161,11.0,16.0,71,0.00,,,0.00,Wunderground v.1.15,2013-03-17 21:18:00,
2013-03-17 16:23:00,29.4,21.5,29.90,SSE,164,9.0,15.0,72,0.00,,,0.00,Wunderground v.1.15,2013-03-17 21:23:00,
2013-03-17 16:28:00,29.1,21.2,29.89,ESE,111,6.0,15.0,72,0.00,,,0.00,Wunderground v.1.15,2013-03-17 21:28:00,
2013-03-17 16:33:00,29.0,21.1,29.89,North,360,6.0,17.0,72,0.00,,,0.00,Wunderground v.1.15,2013-03-17 21:33:00,
2013-03-17 16:38:00,28.8,20.9,29.89,ESE,108,5.0,17.0,72,0.00,,,0.00,Wunderground v.1.15,2013-03-17 21:38:00,
2013-03-17 16:43:00,29.0,21.4,29.88,South,185,5.0,13.0,73,0.00,,,0.00,Wunderground v.1.15,2013-03-17 21:43:00,
2013-03-17 16:48:00,29.3,22.0,29.88,SE,146,9.0,13.0,74,0.00,,,0.00,Wunderground v.1.15,2013-03-17 21:48:00,
2013-03-17 16:53:00,29.3,21.7,29.88,ESE,109,5.0,11.0,73,0.00,,,0.00,Wunderground v.1.15,2013-03-17 21:53:00,
2013-03-17 16:58:00,29.4,22.1,29.88,South,173,10.0,14.0,74,0.00,,,0.00,Wunderground v.1.15,2013-03-17 21:58:00,
2013-03-17 17:03:00,29.4,22.1,29.88,South,186,7.0,16.0,74,0.00,,,0.00,Wunderground v.1.15,2013-03-17 22:03:00,
2013-03-17 17:08:00,29.4,22.1,29.88,SE,132,13.0,16.0,74,0.00,,,0.00,Wunderground v.1.15,2013-03-17 22:08:00,
2013-03-17 17:14:00,29.7,22.4,29.86,SSE,161,7.0,14.0,74,0.00,,,0.00,Wunderground v.1.15,2013-03-17 22:14:00,
2013-03-17 17:19:00,29.8,22.2,29.86,SSE,167,14.0,19.0,73,0.00,,,0.00,Wunderground v.1.15,2013-03-17 22:19:00,
2013-03-17 17:24:00,29.7,22.1,29.86,East,100,4.0,14.0,73,0.00,,,0.00,Wunderground v.1.15,2013-03-17 22:24:00,
2013-03-17 17:29:00,29.7,22.1,29.85,South,176,14.0,16.0,73,0.00,,,0.00,Wunderground v.1.15,2013-03-17 22:29:00,
2013-03-17 17:34:00,29.4,21.8,29.85,SE,138,9.0,16.0,73,0.00,,,0.00,Wunderground v.1.15,2013-03-17 22:34:00,
2013-03-17 17:39:00,29.4,22.1,29.85,ESE,118,12.0,17.0,74,0.00,,,0.00,Wunderground v.1.15,2013-03-17 22:39:00,
2013-03-17 17:44:00,29.7,22.4,29.85,ESE,113,4.0,11.0,74,0.00,,,0.00,Wunderground v.1.15,2013-03-17 22:44:00,
2013-03-17 17:49:00,29.5,22.6,29.85,South,171,1.0,23.0,75,0.00,,,0.00,Wunderground v.1.15,2013-03-17 22:49:00,
2013-03-17 17:54:00,29.7,22.7,29.85,ESE,113,4.0,17.0,75,0.00,,,0.00,Wunderground v.1.15,2013-03-17 22:54:00,
2013-03-17 17:59:00,29.5,22.6,29.84,SE,131,11.0,22.0,75,0.00,,,0.00,Wunderground v.1.15,2013-03-17 22:59:00,
2013-03-17 18:04:00,29.5,22.9,29.84,SE,128,2.0,15.0,76,0.00,,,0.00,Wunderground v.1.15,2013-03-17 23:04:00,
2013-03-17 18:09:00,29.5,22.9,29.84,East,88,5.0,16.0,76,0.00,,,0.00,Wunderground v.1.15,2013-03-17 23:09:00,
2013-03-17 18:14:00,29.5,22.9,29.83,ESE,105,8.0,22.0,76,0.00,,,0.00,Wunderground v.1.15,2013-03-17 23:14:00,
2013-03-17 18:19:00,29.5,23.2,29.83,SSE,151,10.0,22.0,77,0.00,,,0.00,Wunderground v.1.15,2013-03-17 23:19:00,
2013-03-17 18:24:00,29.5,23.2,29.83,East,84,3.0,19.0,77,0.00,,,0.00,Wunderground v.1.15,2013-03-17 23:24:00,
2013-03-17 18:29:00,29.7,23.4,29.83,ESE,122,7.0,19.0,77,0.00,,,0.00,Wunderground v.1.15,2013-03-17 23:29:00,
2013-03-17 18:34:00,29.7,23.4,29.83,South,184,13.0,15.0,77,0.00,,,0.00,Wunderground v.1.15,2013-03-17 23:34:00,
2013-03-17 18:40:00,29.7,23.1,29.83,SE,140,11.0,11.0,76,0.00,,,0.00,Wunderground v.1.15,2013-03-17 23:40:00,
2013-03-17 18:45:00,29.7,23.4,29.83,SE,128,11.0,13.0,77,0.00,,,0.00,Wunderground v.1.15,2013-03-17 23:45:00,
2013-03-17 18:50:00,29.7,23.4,29.83,SE,146,5.0,8.0,77,0.00,,,0.00,Wunderground v.1.15,2013-03-17 23:50:00,
2013-03-17 18:55:00,29.8,23.8,29.83,ESE,112,6.0,19.0,78,0.00,,,0.00,Wunderground v.1.15,2013-03-17 23:55:00,
2013-03-17 19:00:00,29.7,23.7,29.83,SSE,165,11.0,21.0,78,0.00,,,0.00,Wunderground v.1.15,2013-03-18 00:00:00,
2013-03-17 19:05:00,29.7,23.7,29.83,SE,132,7.0,21.0,78,0.00,,,0.00,Wunderground v.1.15,2013-03-18 00:05:00,
2013-03-17 19:10:00,29.5,23.8,29.83,SSE,151,5.0,14.0,79,0.00,,,0.00,Wunderground v.1.15,2013-03-18 00:10:00,
2013-03-17 19:15:00,29.5,23.8,29.82,SSE,165,15.0,19.0,79,0.00,,,0.00,Wunderground v.1.15,2013-03-18 00:15:00,
2013-03-17 19:20:00,29.5,24.1,29.82,ENE,71,9.0,15.0,80,0.00,,,0.00,Wunderground v.1.15,2013-03-18 00:20:00,
2013-03-17 19:25:00,29.5,24.1,29.82,South,172,8.0,17.0,80,0.00,,,0.00,Wunderground v.1.15,2013-03-18 00:25:00,
2013-03-17 19:30:00,29.5,24.1,29.81,ESE,103,3.0,8.0,80,0.00,,,0.00,Wunderground v.1.15,2013-03-18 00:30:00,
2013-03-17 19:35:00,29.5,24.1,29.81,South,186,6.0,22.0,80,0.00,,,0.00,Wunderground v.1.15,2013-03-18 00:35:00,
2013-03-17 19:40:00,29.5,24.1,29.81,East,87,5.0,9.0,80,0.00,,,0.00,Wunderground v.1.15,2013-03-18 00:40:00,
2013-03-17 19:45:00,29.7,24.3,29.82,SE,136,5.0,13.0,80,0.00,,,0.00,Wunderground v.1.15,2013-03-18 00:45:00,
2013-03-17 19:50:00,29.7,24.6,29.82,SSE,164,11.0,13.0,81,0.00,,,0.00,Wunderground v.1.15,2013-03-18 00:50:00,
2013-03-17 19:55:00,29.7,24.6,29.82,ESE,121,5.0,13.0,81,0.00,,,0.00,Wunderground v.1.15,2013-03-18 00:55:00,
2013-03-17 20:00:00,29.7,24.6,29.82,East,94,9.0,9.0,81,0.00,,,0.00,Wunderground v.1.15,2013-03-18 01:00:00,
2013-03-17 20:05:00,29.8,24.7,29.82,ESE,110,10.0,14.0,81,0.00,,,0.00,Wunderground v.1.15,2013-03-18 01:05:00,
2013-03-17 20:10:00,29.8,24.7,29.82,ESE,118,5.0,10.0,81,0.00,,,0.00,Wunderground v.1.15,2013-03-18 01:10:00,
2013-03-17 20:15:00,29.8,24.7,29.83,East,81,6.0,13.0,81,0.00,,,0.00,Wunderground v.1.15,2013-03-18 01:15:00,
2013-03-17 20:20:00,30.0,24.9,29.83,SSE,154,13.0,13.0,81,0.00,,,0.00,Wunderground v.1.15,2013-03-18 01:20:00,
2013-03-17 20:25:00,30.0,24.9,29.83,SSE,156,10.0,15.0,81,0.00,,,0.00,Wunderground v.1.15,2013-03-18 01:25:00,
2013-03-17 20:30:00,30.0,24.9,29.82,ESE,121,7.0,11.0,81,0.00,,,0.00,Wunderground v.1.15,2013-03-18 01:30:00,
2013-03-17 20:35:00,30.0,24.9,29.82,SE,141,7.0,17.0,81,0.00,,,0.00,Wunderground v.1.15,2013-03-18 01:35:00,
2013-03-17 20:40:00,30.1,25.0,29.82,SE,132,10.0,12.0,81,0.00,,,0.00,Wunderground v.1.15,2013-03-18 01:40:00,
2013-03-17 20:45:00,30.1,25.0,29.82,South,175,2.0,17.0,81,0.00,,,0.00,Wunderground v.1.15,2013-03-18 01:45:00,
2013-03-17 20:50:00,30.1,25.0,29.82,SE,134,3.0,10.0,81,0.00,,,0.00,Wunderground v.1.15,2013-03-18 01:50:00,
2013-03-17 20:55:00,30.1,25.0,29.82,SE,142,5.0,17.0,81,0.00,,,0.00,Wunderground v.1.15,2013-03-18 01:55:00,
2013-03-17 21:00:00,30.1,25.3,29.82,South,178,13.0,13.0,82,0.00,,,0.00,Wunderground v.1.15,2013-03-18 02:00:00,
2013-03-17 21:05:00,30.1,25.3,29.82,SSE,150,6.0,16.0,82,0.00,,,0.00,Wunderground v.1.15,2013-03-18 02:05:00,
2013-03-17 21:10:00,30.3,25.5,29.82,SE,136,4.0,10.0,82,0.00,,,0.00,Wunderground v.1.15,2013-03-18 02:10:00,
2013-03-17 21:15:00,30.3,25.5,29.81,ESE,123,6.0,11.0,82,0.00,,,0.00,Wunderground v.1.15,2013-03-18 02:15:00,
2013-03-17 21:20:00,30.3,25.5,29.81,SSE,166,10.0,13.0,82,0.00,,,0.00,Wunderground v.1.15,2013-03-18 02:20:00,
2013-03-17 21:25:00,30.3,25.5,29.81,SE,140,4.0,13.0,82,0.00,,,0.00,Wunderground v.1.15,2013-03-18 02:25:00,
2013-03-17 21:30:00,30.4,25.6,29.78,ENE,74,6.0,15.0,82,0.00,,,0.00,Wunderground v.1.15,2013-03-18 02:30:00,
2013-03-17 21:35:00,30.6,25.8,29.78,SSW,194,18.0,18.0,82,0.00,,,0.00,Wunderground v.1.15,2013-03-18 02:35:00,
2013-03-17 21:41:00,30.6,25.8,29.78,SE,138,9.0,14.0,82,0.00,,,0.00,Wunderground v.1.15,2013-03-18 02:41:00,
2013-03-17 21:46:00,30.7,25.9,29.78,SSE,168,11.0,16.0,82,0.00,,,0.00,Wunderground v.1.15,2013-03-18 02:46:00,
2013-03-17 21:51:00,30.9,25.8,29.78,South,177,11.0,11.0,81,0.00,,,0.00,Wunderground v.1.15,2013-03-18 02:51:00,
2013-03-17 21:56:00,30.9,25.8,29.78,ESE,122,15.0,15.0,81,0.00,,,0.00,Wunderground v.1.15,2013-03-18 02:56:00,
2013-03-17 22:01:00,30.9,25.8,29.79,ESE,104,5.0,15.0,81,0.00,,,0.00,Wunderground v.1.15,2013-03-18 03:01:00,
2013-03-17 22:06:00,31.0,25.9,29.79,South,184,10.0,15.0,81,0.00,,,0.00,Wunderground v.1.15,2013-03-18 03:06:00,
2013-03-17 22:11:00,31.0,25.9,29.79,SSE,157,10.0,12.0,81,0.00,,,0.00,Wunderground v.1.15,2013-03-18 03:11:00,
2013-03-17 22:16:00,31.2,26.0,29.80,SSW,194,14.0,14.0,81,0.00,,,0.00,Wunderground v.1.15,2013-03-18 03:16:00,
2013-03-17 22:21:00,31.2,26.0,29.80,South,177,4.0,14.0,81,0.00,,,0.00,Wunderground v.1.15,2013-03-18 03:21:00,
2013-03-17 22:26:00,31.3,26.1,29.80,SSE,159,4.0,16.0,81,0.00,,,0.00,Wunderground v.1.15,2013-03-18 03:26:00,
2013-03-17 22:31:00,31.3,26.1,29.79,South,171,16.0,16.0,81,0.00,,,0.00,Wunderground v.1.15,2013-03-18 03:31:00,
2013-03-17 22:36:00,31.3,26.1,29.79,SSE,165,9.0,20.0,81,0.00,,,0.00,Wunderground v.1.15,2013-03-18 03:36:00,
2013-03-17 22:41:00,31.2,26.0,29.79,South,179,9.0,18.0,81,0.00,,,0.00,Wunderground v.1.15,2013-03-18 03:41:00,
2013-03-17 22:46:00,31.2,26.0,29.78,ESE,119,9.0,18.0,81,0.00,,,0.00,Wunderground v.1.15,2013-03-18 03:46:00,
2013-03-17 22:51:00,31.2,26.0,29.78,SE,146,13.0,14.0,81,0.00,,,0.00,Wunderground v.1.15,2013-03-18 03:51:00,
2013-03-17 22:56:00,31.2,26.0,29.78,South,175,15.0,19.0,81,0.00,,,0.00,Wunderground v.1.15,2013-03-18 03:56:00,
2013-03-17 23:00:00,31.2,26.0,29.78,South,169,18.0,18.0,81,0.00,,,0.00,Wunderground v.1.15,2013-03-18 04:00:00,
2013-03-17 23:01:00,31.2,26.0,29.78,SSE,165,14.0,18.0,81,0.00,,,0.00,Wunderground v.1.15,2013-03-18 04:01:00,
2013-03-17 23:05:00,31.2,26.0,29.78,SSE,152,11.0,23.0,81,0.00,,,0.00,Wunderground v.1.15,2013-03-18 04:05:00,
2013-03-17 23:10:00,31.2,26.0,29.78,NNE,12,7.0,13.0,81,0.00,,,0.00,Wunderground v.1.15,2013-03-18 04:10:00,
2013-03-17 23:15:00,31.0,26.1,29.77,SE,145,12.0,22.0,82,0.00,,,0.00,Wunderground v.1.15,2013-03-18 04:15:00,
2013-03-17 23:20:00,31.0,26.1,29.77,South,169,6.0,14.0,82,0.00,,,0.00,Wunderground v.1.15,2013-03-18 04:20:00,
2013-03-17 23:25:00,31.0,26.1,29.77,SSE,165,6.0,20.0,82,0.00,,,0.00,Wunderground v.1.15,2013-03-18 04:25:00,
2013-03-17 23:30:00,31.0,26.4,29.76,South,174,14.0,18.0,83,0.00,,,0.00,Wunderground v.1.15,2013-03-18 04:30:00,
2013-03-17 23:35:00,30.9,26.3,29.76,South,171,10.0,21.0,83,0.00,,,0.00,Wunderground v.1.15,2013-03-18 04:35:00,
2013-03-17 23:36:00,30.9,26.3,29.76,ESE,123,14.0,21.0,83,0.00,,,0.00,Wunderground v.1.15,2013-03-18 04:36:00,
2013-03-17 23:41:00,30.9,26.6,29.76,SSE,163,8.0,14.0,84,0.00,,,0.00,Wunderground v.1.15,2013-03-18 04:41:00,
2013-03-17 23:46:00,30.7,26.4,29.73,ESE,121,12.0,25.0,84,0.00,,,0.00,Wunderground v.1.15,2013-03-18 04:46:00,
2013-03-17 23:51:00,30.7,26.4,29.73,SE,140,11.0,21.0,84,0.00,,,0.00,Wunderground v.1.15,2013-03-18 04:51:00,
2013-03-17 23:56:00,30.6,26.6,29.73,South,184,6.0,21.0,85,0.00,,,0.00,Wunderground v.1.15,2013-03-18 04:56:00,